sensor_id;sensor_type;location;lat;lon;timestamp;pressure;altitude;pressure_sealevel;temperature;humidity
49935;BME280;39898;41.762;26.200;2022-10-16T00:00:35;101487.94;;;10.50;nan
49935;BME280;39898;41.762;26.200;2022-10-16T00:03:03;101494.09;;;10.37;nan
49935;BME280;39898;41.762;26.200;2022-10-16T00:05:31;101493.22;;;10.41;nan
49935;BME280;39898;41.762;26.200;2022-10-16T00:07:58;101496.72;;;10.38;nan
49935;BME280;39898;41.762;26.200;2022-10-16T00:10:24;101491.47;;;10.35;nan
49935;BME280;39898;41.762;26.200;2022-10-16T00:12:51;101494.97;;;10.40;nan
49935;BME280;39898;41.762;26.200;2022-10-16T00:15:18;101497.56;;;10.51;nan
49935;BME280;39898;41.762;26.200;2022-10-16T00:17:44;101493.19;;;10.54;nan
49935;BME280;39898;41.762;26.200;2022-10-16T00:20:11;101503.69;;;10.57;nan
49935;BME280;39898;41.762;26.200;2022-10-16T00:22:38;101467.84;;;10.40;nan
49935;BME280;39898;41.762;26.200;2022-10-16T00:25:05;101513.28;;;10.61;nan
49935;BME280;39898;41.762;26.200;2022-10-16T00:27:33;101496.69;;;10.53;nan
49935;BME280;39898;41.762;26.200;2022-10-16T00:30:00;101468.75;;;10.30;nan
49935;BME280;39898;41.762;26.200;2022-10-16T00:32:26;101501.97;;;10.47;nan
49935;BME280;39898;41.762;26.200;2022-10-16T00:34:54;101501.97;;;10.44;nan
49935;BME280;39898;41.762;26.200;2022-10-16T00:37:23;101503.72;;;10.38;nan
49935;BME280;39898;41.762;26.200;2022-10-16T00:39:50;101487.13;;;10.28;nan
49935;BME280;39898;41.762;26.200;2022-10-16T00:42:18;101491.50;;;10.28;nan
49935;BME280;39898;41.762;26.200;2022-10-16T00:44:52;101504.59;;;10.34;nan
49935;BME280;39898;41.762;26.200;2022-10-16T00:47:24;101502.88;;;10.34;nan
49935;BME280;39898;41.762;26.200;2022-10-16T00:49:58;101487.13;;;10.28;nan
49935;BME280;39898;41.762;26.200;2022-10-16T00:52:25;101504.59;;;10.34;nan
49935;BME280;39898;41.762;26.200;2022-10-16T00:54:53;101509.00;;;10.30;nan
49935;BME280;39898;41.762;26.200;2022-10-16T00:57:20;101509.88;;;10.29;nan
49935;BME280;39898;41.762;26.200;2022-10-16T00:59:48;101498.53;;;10.15;nan
49935;BME280;39898;41.762;26.200;2022-10-16T01:02:15;101500.25;;;10.04;nan
49935;BME280;39898;41.762;26.200;2022-10-16T01:04:52;101489.75;;;9.95;nan
49935;BME280;39898;41.762;26.200;2022-10-16T01:10:07;101506.41;;;10.11;nan
49935;BME280;39898;41.762;26.200;2022-10-16T01:17:49;101504.63;;;10.01;nan
49935;BME280;39898;41.762;26.200;2022-10-16T01:23:05;101491.50;;;9.70;nan
49935;BME280;39898;41.762;26.200;2022-10-16T01:25:54;101515.13;;;9.79;nan
49935;BME280;39898;41.762;26.200;2022-10-16T01:28:55;101512.50;;;9.79;nan
49935;BME280;39898;41.762;26.200;2022-10-16T01:31:22;101515.13;;;9.72;nan
49935;BME280;39898;41.762;26.200;2022-10-16T01:33:59;101500.22;;;9.50;nan
49935;BME280;39898;41.762;26.200;2022-10-16T01:36:39;101529.09;;;9.63;nan
49935;BME280;39898;41.762;26.200;2022-10-16T01:39:10;101536.97;;;9.69;nan
49935;BME280;39898;41.762;26.200;2022-10-16T01:41:41;101547.47;;;9.68;nan
49935;BME280;39898;41.762;26.200;2022-10-16T01:44:15;101555.34;;;9.68;nan
49935;BME280;39898;41.762;26.200;2022-10-16T01:46:46;101544.84;;;9.60;nan
49935;BME280;39898;41.762;26.200;2022-10-16T01:49:16;101536.09;;;9.54;nan
49935;BME280;39898;41.762;26.200;2022-10-16T01:51:47;101521.22;;;9.45;nan
49935;BME280;39898;41.762;26.200;2022-10-16T01:54:17;101545.72;;;9.59;nan
49935;BME280;39898;41.762;26.200;2022-10-16T01:56:48;101549.19;;;9.52;nan
49935;BME280;39898;41.762;26.200;2022-10-16T01:59:19;101550.03;;;9.50;nan
49935;BME280;39898;41.762;26.200;2022-10-16T02:01:51;101560.56;;;9.45;nan
49935;BME280;39898;41.762;26.200;2022-10-16T02:04:24;101564.03;;;9.44;nan
49935;BME280;39898;41.762;26.200;2022-10-16T02:06:53;101564.88;;;9.36;nan
49935;BME280;39898;41.762;26.200;2022-10-16T02:09:21;101576.28;;;9.42;nan
49935;BME280;39898;41.762;26.200;2022-10-16T02:11:49;101550.88;;;9.26;nan
49935;BME280;39898;41.762;26.200;2022-10-16T02:14:18;101542.97;;;9.17;nan
49935;BME280;39898;41.762;26.200;2022-10-16T02:16:46;101573.59;;;9.27;nan
49935;BME280;39898;41.762;26.200;2022-10-16T02:19:13;101574.47;;;9.26;nan
49935;BME280;39898;41.762;26.200;2022-10-16T02:21:47;101582.31;;;9.26;nan
49935;BME280;39898;41.762;26.200;2022-10-16T02:24:26;101586.69;;;9.24;nan
49935;BME280;39898;41.762;26.200;2022-10-16T02:29:46;101586.66;;;9.15;nan
49935;BME280;39898;41.762;26.200;2022-10-16T02:32:21;101589.28;;;9.15;nan
49935;BME280;39898;41.762;26.200;2022-10-16T02:34:50;101587.50;;;9.13;nan
49935;BME280;39898;41.762;26.200;2022-10-16T02:37:18;101594.50;;;9.12;nan
49935;BME280;39898;41.762;26.200;2022-10-16T02:39:45;101603.22;;;9.14;nan
49935;BME280;39898;41.762;26.200;2022-10-16T02:42:13;101602.38;;;9.21;nan
49935;BME280;39898;41.762;26.200;2022-10-16T02:44:40;101609.41;;;9.22;nan
49935;BME280;39898;41.762;26.200;2022-10-16T02:47:07;101603.28;;;9.23;nan
49935;BME280;39898;41.762;26.200;2022-10-16T02:49:33;101598.06;;;9.28;nan
49935;BME280;39898;41.762;26.200;2022-10-16T02:52:00;101592.81;;;9.26;nan
49935;BME280;39898;41.762;26.200;2022-10-16T02:54:27;101609.41;;;9.30;nan
49935;BME280;39898;41.762;26.200;2022-10-16T02:56:54;101600.66;;;9.23;nan
49935;BME280;39898;41.762;26.200;2022-10-16T02:59:20;101586.66;;;9.15;nan
49935;BME280;39898;41.762;26.200;2022-10-16T03:01:47;101605.91;;;9.23;nan
49935;BME280;39898;41.762;26.200;2022-10-16T03:04:14;101612.03;;;9.24;nan
49935;BME280;39898;41.762;26.200;2022-10-16T03:06:41;101600.63;;;9.17;nan
49935;BME280;39898;41.762;26.200;2022-10-16T03:09:08;101602.38;;;9.15;nan
49935;BME280;39898;41.762;26.200;2022-10-16T03:11:34;101599.72;;;9.09;nan
49935;BME280;39898;41.762;26.200;2022-10-16T03:14:01;101602.34;;;9.08;nan
49935;BME280;39898;41.762;26.200;2022-10-16T03:16:28;101618.06;;;9.05;nan
49935;BME280;39898;41.762;26.200;2022-10-16T03:18:55;101614.50;;;9.00;nan
49935;BME280;39898;41.762;26.200;2022-10-16T03:21:21;101625.84;;;8.93;nan
49935;BME280;39898;41.762;26.200;2022-10-16T03:23:48;101610.97;;;8.89;nan
49935;BME280;39898;41.762;26.200;2022-10-16T03:26:15;101616.22;;;8.89;nan
49935;BME280;39898;41.762;26.200;2022-10-16T03:28:41;101631.09;;;8.94;nan
49935;BME280;39898;41.762;26.200;2022-10-16T03:31:08;101628.44;;;8.90;nan
49935;BME280;39898;41.762;26.200;2022-10-16T03:33:35;101629.31;;;8.92;nan
49935;BME280;39898;41.762;26.200;2022-10-16T03:36:02;101626.69;;;8.90;nan
49935;BME280;39898;41.762;26.200;2022-10-16T03:38:28;101626.69;;;8.89;nan
49935;BME280;39898;41.762;26.200;2022-10-16T03:40:55;101601.28;;;8.73;nan
49935;BME280;39898;41.762;26.200;2022-10-16T03:43:22;101625.81;;;8.84;nan
49935;BME280;39898;41.762;26.200;2022-10-16T03:45:50;101639.78;;;8.89;nan
49935;BME280;39898;41.762;26.200;2022-10-16T03:48:19;101631.03;;;8.82;nan
49935;BME280;39898;41.762;26.200;2022-10-16T03:50:46;101644.13;;;8.85;nan
49935;BME280;39898;41.762;26.200;2022-10-16T03:53:14;101636.19;;;8.72;nan
49935;BME280;39898;41.762;26.200;2022-10-16T03:55:42;101639.69;;;8.69;nan
49935;BME280;39898;41.762;26.200;2022-10-16T03:58:09;101644.91;;;8.74;nan
49935;BME280;39898;41.762;26.200;2022-10-16T04:00:44;101637.97;;;8.77;nan
49935;BME280;39898;41.762;26.200;2022-10-16T04:03:11;101631.88;;;8.83;nan
49935;BME280;39898;41.762;26.200;2022-10-16T04:05:38;101642.41;;;8.90;nan
49935;BME280;39898;41.762;26.200;2022-10-16T04:08:05;101633.63;;;8.85;nan
49935;BME280;39898;41.762;26.200;2022-10-16T04:10:32;101639.81;;;8.92;nan
49935;BME280;39898;41.762;26.200;2022-10-16T04:12:59;101628.44;;;8.90;nan
49935;BME280;39898;41.762;26.200;2022-10-16T04:15:26;101638.88;;;8.85;nan
49935;BME280;39898;41.762;26.200;2022-10-16T04:17:53;101631.03;;;8.87;nan
49935;BME280;39898;41.762;26.200;2022-10-16T04:20:19;101643.31;;;8.92;nan
49935;BME280;39898;41.762;26.200;2022-10-16T04:22:46;101654.69;;;8.99;nan
49935;BME280;39898;41.762;26.200;2022-10-16T04:25:13;101640.72;;;9.03;nan
49935;BME280;39898;41.762;26.200;2022-10-16T04:27:40;101653.84;;;9.06;nan
49935;BME280;39898;41.762;26.200;2022-10-16T04:30:09;101645.97;;;9.04;nan
49935;BME280;39898;41.762;26.200;2022-10-16T04:32:36;101645.09;;;9.01;nan
49935;BME280;39898;41.762;26.200;2022-10-16T04:35:03;101649.50;;;9.06;nan
49935;BME280;39898;41.762;26.200;2022-10-16T04:37:29;101660.84;;;9.10;nan
49935;BME280;39898;41.762;26.200;2022-10-16T04:39:56;101654.75;;;9.06;nan
49935;BME280;39898;41.762;26.200;2022-10-16T04:42:23;101678.34;;;9.11;nan
49935;BME280;39898;41.762;26.200;2022-10-16T04:44:50;101661.78;;;9.15;nan
49935;BME280;39898;41.762;26.200;2022-10-16T04:47:17;101633.66;;;8.82;nan
49935;BME280;39898;41.762;26.200;2022-10-16T04:49:43;101674.81;;;9.06;nan
49935;BME280;39898;41.762;26.200;2022-10-16T04:52:10;101669.59;;;9.07;nan
49935;BME280;39898;41.762;26.200;2022-10-16T04:54:37;101674.81;;;9.07;nan
49935;BME280;39898;41.762;26.200;2022-10-16T04:57:03;101671.31;;;9.04;nan
49935;BME280;39898;41.762;26.200;2022-10-16T04:59:31;101686.13;;;9.00;nan
49935;BME280;39898;41.762;26.200;2022-10-16T05:01:58;101668.66;;;8.95;nan
49935;BME280;39898;41.762;26.200;2022-10-16T05:04:24;101688.00;;;9.18;nan
49935;BME280;39898;41.762;26.200;2022-10-16T05:06:51;101688.03;;;9.24;nan
49935;BME280;39898;41.762;26.200;2022-10-16T05:09:18;101689.81;;;9.31;nan
49935;BME280;39898;41.762;26.200;2022-10-16T05:11:45;101695.91;;;9.31;nan
49935;BME280;39898;41.762;26.200;2022-10-16T05:14:12;101699.44;;;9.33;nan
49935;BME280;39898;41.762;26.200;2022-10-16T05:16:38;101686.28;;;9.24;nan
49935;BME280;39898;41.762;26.200;2022-10-16T05:19:05;101699.41;;;9.32;nan
49935;BME280;39898;41.762;26.200;2022-10-16T05:21:52;101685.47;;;9.39;nan
49935;BME280;39898;41.762;26.200;2022-10-16T05:24:18;101685.53;;;9.51;nan
49935;BME280;39898;41.762;26.200;2022-10-16T05:26:45;101694.34;;;9.66;nan
49935;BME280;39898;41.762;26.200;2022-10-16T05:29:12;101692.63;;;9.71;nan
49935;BME280;39898;41.762;26.200;2022-10-16T05:31:38;101699.66;;;9.92;nan
49935;BME280;39898;41.762;26.200;2022-10-16T05:34:05;101697.06;;;10.04;nan
49935;BME280;39898;41.762;26.200;2022-10-16T05:36:32;101705.00;;;10.10;nan
49935;BME280;39898;41.762;26.200;2022-10-16T05:38:59;101711.13;;;10.18;nan
49935;BME280;39898;41.762;26.200;2022-10-16T05:41:25;101701.50;;;10.31;nan
49935;BME280;39898;41.762;26.200;2022-10-16T05:43:54;101687.53;;;10.35;nan
49935;BME280;39898;41.762;26.200;2022-10-16T05:46:21;101716.44;;;10.51;nan
49935;BME280;39898;41.762;26.200;2022-10-16T05:48:48;101723.44;;;10.69;nan
49935;BME280;39898;41.762;26.200;2022-10-16T05:51:14;101719.06;;;10.78;nan
49935;BME280;39898;41.762;26.200;2022-10-16T05:53:41;101719.91;;;10.97;nan
49935;BME280;39898;41.762;26.200;2022-10-16T05:56:10;101728.69;;;11.09;nan
49935;BME280;39898;41.762;26.200;2022-10-16T05:58:38;101716.38;;;11.22;nan
49935;BME280;39898;41.762;26.200;2022-10-16T06:01:13;101728.59;;;11.44;nan
49935;BME280;39898;41.762;26.200;2022-10-16T06:03:40;101734.69;;;11.56;nan
49935;BME280;39898;41.762;26.200;2022-10-16T06:06:15;101729.41;;;11.58;nan
49935;BME280;39898;41.762;26.200;2022-10-16T06:08:43;101740.81;;;11.67;nan
49935;BME280;39898;41.762;26.200;2022-10-16T06:11:14;101740.78;;;11.79;nan
49935;BME280;39898;41.762;26.200;2022-10-16T06:13:41;101741.69;;;11.75;nan
49935;BME280;39898;41.762;26.200;2022-10-16T06:16:10;101740.81;;;11.69;nan
49935;BME280;39898;41.762;26.200;2022-10-16T06:18:37;101749.53;;;11.80;nan
49935;BME280;39898;41.762;26.200;2022-10-16T06:21:18;101737.19;;;11.94;nan
49935;BME280;39898;41.762;26.200;2022-10-16T06:23:45;101721.47;;;11.76;nan
49935;BME280;39898;41.762;26.200;2022-10-16T06:26:15;101752.06;;;12.05;nan
49935;BME280;39898;41.762;26.200;2022-10-16T06:28:42;101742.34;;;12.15;nan
49935;BME280;39898;41.762;26.200;2022-10-16T06:31:10;101746.66;;;12.28;nan
49935;BME280;39898;41.762;26.200;2022-10-16T06:33:38;101757.13;;;12.42;nan
49935;BME280;39898;41.762;26.200;2022-10-16T06:36:07;101750.91;;;12.53;nan
49935;BME280;39898;41.762;26.200;2022-10-16T06:38:35;101703.63;;;12.31;nan
49935;BME280;39898;41.762;26.200;2022-10-16T06:41:02;101740.25;;;12.64;nan
49935;BME280;39898;41.762;26.200;2022-10-16T06:43:30;101742.81;;;12.74;nan
49935;BME280;39898;41.762;26.200;2022-10-16T06:45:59;101720.78;;;12.83;nan
49935;BME280;39898;41.762;26.200;2022-10-16T06:48:27;101752.19;;;13.13;nan
49935;BME280;39898;41.762;26.200;2022-10-16T06:51:04;101739.72;;;13.25;nan
49935;BME280;39898;41.762;26.200;2022-10-16T06:53:36;101734.41;;;13.31;nan
49935;BME280;39898;41.762;26.200;2022-10-16T06:56:18;101749.28;;;13.38;nan
49935;BME280;39898;41.762;26.200;2022-10-16T06:58:46;101741.28;;;13.44;nan
49935;BME280;39898;41.762;26.200;2022-10-16T07:01:15;101733.84;;;13.81;nan
49935;BME280;39898;41.762;26.200;2022-10-16T07:03:44;101723.31;;;13.78;nan
49935;BME280;39898;41.762;26.200;2022-10-16T07:06:13;101746.69;;;14.06;nan
49935;BME280;39898;41.762;26.200;2022-10-16T07:08:42;101730.03;;;14.01;nan
49935;BME280;39898;41.762;26.200;2022-10-16T07:11:12;101746.16;;;14.47;nan
49935;BME280;39898;41.762;26.200;2022-10-16T07:13:41;101748.41;;;14.71;nan
49935;BME280;39898;41.762;26.200;2022-10-16T07:16:28;101743.84;;;14.81;nan
49935;BME280;39898;41.762;26.200;2022-10-16T07:18:58;101756.88;;;14.93;nan
49935;BME280;39898;41.762;26.200;2022-10-16T07:21:31;101744.66;;;14.84;nan
49935;BME280;39898;41.762;26.200;2022-10-16T07:24:04;101730.31;;;14.99;nan
49935;BME280;39898;41.762;26.200;2022-10-16T07:26:34;101756.19;;;15.32;nan
49935;BME280;39898;41.762;26.200;2022-10-16T07:29:02;101752.66;;;15.31;nan
49935;BME280;39898;41.762;26.200;2022-10-16T07:31:30;101753.34;;;15.42;nan
49935;BME280;39898;41.762;26.200;2022-10-16T07:33:58;101719.63;;;15.52;nan
49935;BME280;39898;41.762;26.200;2022-10-16T07:36:25;101727.53;;;15.55;nan
49935;BME280;39898;41.762;26.200;2022-10-16T07:38:52;101747.22;;;15.84;nan
49935;BME280;39898;41.762;26.200;2022-10-16T07:41:24;101743.41;;;15.97;nan
49935;BME280;39898;41.762;26.200;2022-10-16T07:43:52;101748.97;;;16.25;nan
49935;BME280;39898;41.762;26.200;2022-10-16T07:46:19;101746.25;;;16.66;nan
49935;BME280;39898;41.762;26.200;2022-10-16T07:48:47;101739.75;;;16.79;nan
49935;BME280;39898;41.762;26.200;2022-10-16T07:51:17;101725.75;;;16.74;nan
49935;BME280;39898;41.762;26.200;2022-10-16T07:53:44;101732.41;;;16.90;nan
49935;BME280;39898;41.762;26.200;2022-10-16T07:56:11;101745.03;;;16.81;nan
49935;BME280;39898;41.762;26.200;2022-10-16T07:58:38;101739.88;;;17.10;nan
49935;BME280;39898;41.762;26.200;2022-10-16T08:01:08;101736.63;;;17.64;nan
49935;BME280;39898;41.762;26.200;2022-10-16T08:03:36;101727.13;;;17.56;nan
49935;BME280;39898;41.762;26.200;2022-10-16T08:06:04;101711.31;;;17.51;nan
49935;BME280;39898;41.762;26.200;2022-10-16T08:08:31;101724.19;;;17.66;nan
49935;BME280;39898;41.762;26.200;2022-10-16T08:10:57;101729.09;;;17.48;nan
49935;BME280;39898;41.762;26.200;2022-10-16T08:13:24;101735.31;;;17.79;nan
49935;BME280;39898;41.762;26.200;2022-10-16T08:15:53;101725.19;;;18.20;nan
49935;BME280;39898;41.762;26.200;2022-10-16T08:18:21;101718.16;;;18.19;nan
49935;BME280;39898;41.762;26.200;2022-10-16T08:20:47;101722.47;;;18.51;nan
49935;BME280;39898;41.762;26.200;2022-10-16T08:23:14;101710.75;;;18.56;nan
49935;BME280;39898;41.762;26.200;2022-10-16T08:25:41;101713.00;;;18.68;nan
49935;BME280;39898;41.762;26.200;2022-10-16T08:28:10;101729.03;;;18.67;nan
49935;BME280;39898;41.762;26.200;2022-10-16T08:30:37;101722.72;;;18.97;nan
49935;BME280;39898;41.762;26.200;2022-10-16T08:33:04;101720.88;;;19.24;nan
49935;BME280;39898;41.762;26.200;2022-10-16T08:35:32;101715.66;;;19.21;nan
49935;BME280;39898;41.762;26.200;2022-10-16T08:37:59;101716.75;;;19.15;nan
49935;BME280;39898;41.762;26.200;2022-10-16T08:40:28;101705.34;;;19.36;nan
49935;BME280;39898;41.762;26.200;2022-10-16T08:44:01;101720.09;;;19.46;nan
49935;BME280;39898;41.762;26.200;2022-10-16T08:48:53;101714.16;;;19.63;nan
49935;BME280;39898;41.762;26.200;2022-10-16T08:51:26;101706.00;;;19.43;nan
49935;BME280;39898;41.762;26.200;2022-10-16T08:53:55;101718.81;;;19.56;nan
49935;BME280;39898;41.762;26.200;2022-10-16T08:56:24;101712.53;;;19.59;nan
49935;BME280;39898;41.762;26.200;2022-10-16T08:58:51;101711.78;;;19.78;nan
49935;BME280;39898;41.762;26.200;2022-10-16T09:01:22;101710.97;;;19.02;nan
49935;BME280;39898;41.762;26.200;2022-10-16T09:04:05;101717.06;;;19.06;nan
49935;BME280;39898;41.762;26.200;2022-10-16T09:07:20;101692.13;;;19.33;nan
49935;BME280;39898;41.762;26.200;2022-10-16T09:12:48;101717.66;;;19.40;nan
49935;BME280;39898;41.762;26.200;2022-10-16T09:15:34;101715.78;;;19.67;nan
49935;BME280;39898;41.762;26.200;2022-10-16T09:21:29;101711.38;;;19.66;nan
49935;BME280;39898;41.762;26.200;2022-10-16T09:24:00;101696.38;;;20.31;nan
49935;BME280;39898;41.762;26.200;2022-10-16T09:26:33;101696.91;;;20.19;nan
49935;BME280;39898;41.762;26.200;2022-10-16T09:29:00;101677.28;;;20.20;nan
49935;BME280;39898;41.762;26.200;2022-10-16T09:31:27;101705.63;;;19.99;nan
49935;BME280;39898;41.762;26.200;2022-10-16T09:33:57;101711.03;;;19.98;nan
49935;BME280;39898;41.762;26.200;2022-10-16T09:36:27;101641.56;;;19.55;nan
49935;BME280;39898;41.762;26.200;2022-10-16T09:39:05;101708.28;;;19.76;nan
49935;BME280;39898;41.762;26.200;2022-10-16T09:41:35;101700.44;;;19.96;nan
49935;BME280;39898;41.762;26.200;2022-10-16T09:44:06;101695.53;;;20.30;nan
49935;BME280;39898;41.762;26.200;2022-10-16T09:46:42;101696.34;;;20.54;nan
49935;BME280;39898;41.762;26.200;2022-10-16T09:49:26;101688.97;;;20.60;nan
49935;BME280;39898;41.762;26.200;2022-10-16T09:52:13;101667.34;;;20.66;nan
49935;BME280;39898;41.762;26.200;2022-10-16T09:57:17;101664.78;;;21.45;nan
49935;BME280;39898;41.762;26.200;2022-10-16T09:59:50;101689.59;;;21.49;nan
49935;BME280;39898;41.762;26.200;2022-10-16T10:02:19;101687.63;;;21.91;nan
49935;BME280;39898;41.762;26.200;2022-10-16T10:04:52;101683.47;;;21.65;nan
49935;BME280;39898;41.762;26.200;2022-10-16T10:07:25;101670.63;;;21.53;nan
49935;BME280;39898;41.762;26.200;2022-10-16T10:09:55;101673.81;;;21.81;nan
49935;BME280;39898;41.762;26.200;2022-10-16T10:12:28;101677.44;;;21.80;nan
49935;BME280;39898;41.762;26.200;2022-10-16T10:14:58;101650.41;;;21.66;nan
49935;BME280;39898;41.762;26.200;2022-10-16T10:17:26;101673.81;;;21.81;nan
49935;BME280;39898;41.762;26.200;2022-10-16T10:19:55;101682.81;;;21.99;nan
49935;BME280;39898;41.762;26.200;2022-10-16T10:25:15;101691.44;;;21.47;nan
49935;BME280;39898;41.762;26.200;2022-10-16T10:31:01;101665.06;;;21.58;nan
49935;BME280;39898;41.762;26.200;2022-10-16T10:33:58;101677.38;;;22.19;nan
49935;BME280;39898;41.762;26.200;2022-10-16T10:36:40;101666.44;;;21.86;nan
49935;BME280;39898;41.762;26.200;2022-10-16T10:39:24;101635.22;;;22.22;nan
49935;BME280;39898;41.762;26.200;2022-10-16T10:42:08;101664.53;;;22.25;nan
49935;BME280;39898;41.762;26.200;2022-10-16T10:48:02;101659.63;;;21.98;nan
49935;BME280;39898;41.762;26.200;2022-10-16T10:50:52;101654.16;;;21.82;nan
49935;BME280;39898;41.762;26.200;2022-10-16T10:56:39;101659.78;;;21.56;nan
49935;BME280;39898;41.762;26.200;2022-10-16T11:01:59;101660.31;;;22.38;nan
49935;BME280;39898;41.762;26.200;2022-10-16T11:04:34;101649.75;;;22.54;nan
49935;BME280;39898;41.762;26.200;2022-10-16T11:07:05;101652.69;;;22.12;nan
49935;BME280;39898;41.762;26.200;2022-10-16T11:09:44;101657.25;;;22.81;nan
49935;BME280;39898;41.762;26.200;2022-10-16T11:15:01;101654.09;;;21.64;nan
49935;BME280;39898;41.762;26.200;2022-10-16T11:17:39;101652.94;;;21.51;nan
49935;BME280;39898;41.762;26.200;2022-10-16T11:20:26;101624.72;;;21.05;nan
49935;BME280;39898;41.762;26.200;2022-10-16T11:23:16;101637.69;;;21.53;nan
49935;BME280;39898;41.762;26.200;2022-10-16T11:25:46;101656.53;;;21.88;nan
49935;BME280;39898;41.762;26.200;2022-10-16T11:28:20;101653.66;;;21.74;nan
49935;BME280;39898;41.762;26.200;2022-10-16T11:31:07;101646.22;;;22.16;nan
49935;BME280;39898;41.762;26.200;2022-10-16T11:33:42;101645.56;;;21.94;nan
49935;BME280;39898;41.762;26.200;2022-10-16T11:36:26;101632.53;;;21.87;nan
49935;BME280;39898;41.762;26.200;2022-10-16T11:41:34;101651.75;;;21.95;nan
49935;BME280;39898;41.762;26.200;2022-10-16T11:50:28;101612.47;;;22.49;nan
49935;BME280;39898;41.762;26.200;2022-10-16T11:53:29;101637.38;;;21.79;nan
49935;BME280;39898;41.762;26.200;2022-10-16T11:55:59;101654.06;;;22.02;nan
49935;BME280;39898;41.762;26.200;2022-10-16T11:58:33;101652.91;;;21.89;nan
49935;BME280;39898;41.762;26.200;2022-10-16T12:06:34;101667.13;;;22.27;nan
49935;BME280;39898;41.762;26.200;2022-10-16T12:09:03;101660.25;;;21.47;nan
49935;BME280;39898;41.762;26.200;2022-10-16T12:11:39;101657.03;;;21.78;nan
49935;BME280;39898;41.762;26.200;2022-10-16T12:14:18;101658.91;;;22.13;nan
49935;BME280;39898;41.762;26.200;2022-10-16T12:16:54;101636.94;;;22.42;nan
49935;BME280;39898;41.762;26.200;2022-10-16T12:19:24;101662.63;;;21.92;nan
49935;BME280;39898;41.762;26.200;2022-10-16T12:21:52;101685.63;;;21.77;nan
49935;BME280;39898;41.762;26.200;2022-10-16T12:24:33;101674.31;;;21.89;nan
49935;BME280;39898;41.762;26.200;2022-10-16T12:27:01;101683.28;;;21.50;nan
49935;BME280;39898;41.762;26.200;2022-10-16T12:29:41;101672.44;;;21.73;nan
49935;BME280;39898;41.762;26.200;2022-10-16T12:32:42;101675.34;;;21.67;nan
49935;BME280;39898;41.762;26.200;2022-10-16T12:35:22;101683.53;;;21.64;nan
49935;BME280;39898;41.762;26.200;2022-10-16T12:37:51;101683.41;;;21.47;nan
49935;BME280;39898;41.762;26.200;2022-10-16T12:40:28;101649.34;;;21.11;nan
49935;BME280;39898;41.762;26.200;2022-10-16T12:42:56;101672.06;;;21.21;nan
49935;BME280;39898;41.762;26.200;2022-10-16T12:45:32;101661.44;;;21.20;nan
49935;BME280;39898;41.762;26.200;2022-10-16T12:48:01;101663.44;;;21.35;nan
49935;BME280;39898;41.762;26.200;2022-10-16T12:52:59;101668.47;;;22.00;nan
49935;BME280;39898;41.762;26.200;2022-10-16T12:55:34;101673.97;;;21.78;nan
49935;BME280;39898;41.762;26.200;2022-10-16T13:15:24;101679.97;;;21.24;nan
49935;BME280;39898;41.762;26.200;2022-10-16T13:18:11;101686.84;;;21.30;nan
49935;BME280;39898;41.762;26.200;2022-10-16T13:23:34;101667.53;;;21.23;nan
49935;BME280;39898;41.762;26.200;2022-10-16T13:26:16;101677.75;;;21.34;nan
49935;BME280;39898;41.762;26.200;2022-10-16T13:28:46;101671.88;;;21.06;nan
49935;BME280;39898;41.762;26.200;2022-10-16T13:31:17;101670.59;;;21.14;nan
49935;BME280;39898;41.762;26.200;2022-10-16T13:33:47;101679.22;;;21.41;nan
49935;BME280;39898;41.762;26.200;2022-10-16T13:36:20;101667.28;;;21.30;nan
49935;BME280;39898;41.762;26.200;2022-10-16T13:38:47;101675.22;;;21.31;nan
49935;BME280;39898;41.762;26.200;2022-10-16T13:41:16;101679.75;;;21.09;nan
49935;BME280;39898;41.762;26.200;2022-10-16T13:43:46;101664.75;;;20.85;nan
49935;BME280;39898;41.762;26.200;2022-10-16T13:46:16;101667.50;;;20.83;nan
49935;BME280;39898;41.762;26.200;2022-10-16T13:48:43;101667.19;;;20.91;nan
49935;BME280;39898;41.762;26.200;2022-10-16T13:51:15;101673.72;;;20.84;nan
49935;BME280;39898;41.762;26.200;2022-10-16T13:53:43;101673.16;;;20.76;nan
49935;BME280;39898;41.762;26.200;2022-10-16T13:56:13;101653.38;;;20.60;nan
49935;BME280;39898;41.762;26.200;2022-10-16T13:58:41;101649.22;;;20.53;nan
49935;BME280;39898;41.762;26.200;2022-10-16T14:01:24;101658.97;;;20.54;nan
49935;BME280;39898;41.762;26.200;2022-10-16T14:04:01;101655.97;;;20.61;nan
49935;BME280;39898;41.762;26.200;2022-10-16T14:06:29;101653.88;;;20.69;nan
49935;BME280;39898;41.762;26.200;2022-10-16T14:09:08;101655.41;;;20.75;nan
49935;BME280;39898;41.762;26.200;2022-10-16T14:11:56;101660.25;;;20.65;nan
49935;BME280;39898;41.762;26.200;2022-10-16T14:14:26;101670.19;;;20.62;nan
49935;BME280;39898;41.762;26.200;2022-10-16T14:16:59;101672.59;;;20.48;nan
49935;BME280;39898;41.762;26.200;2022-10-16T14:19:28;101645.06;;;20.24;nan
49935;BME280;39898;41.762;26.200;2022-10-16T14:21:57;101673.38;;;20.28;nan
49935;BME280;39898;41.762;26.200;2022-10-16T14:26:56;101674.94;;;20.11;nan
49935;BME280;39898;41.762;26.200;2022-10-16T14:29:25;101679.09;;;20.19;nan
49935;BME280;39898;41.762;26.200;2022-10-16T14:32:04;101676.81;;;20.09;nan
49935;BME280;39898;41.762;26.200;2022-10-16T14:34:38;101678.53;;;20.10;nan
49935;BME280;39898;41.762;26.200;2022-10-16T14:37:27;101676.22;;;20.01;nan
49935;BME280;39898;41.762;26.200;2022-10-16T14:40:03;101695.38;;;19.89;nan
49935;BME280;39898;41.762;26.200;2022-10-16T14:42:30;101693.81;;;19.83;nan
49935;BME280;39898;41.762;26.200;2022-10-16T14:44:57;101692.25;;;19.78;nan